My Meet Scores
Summer Silver, Flips Gymnastics North Shore - MyMeetScores.com
Top100 | Top Teams | Upcoming Meets | Completed Meets | Latest | Add Scores | Help| Support | Bookmark and Share

Summer Silver, Flips Gymnastics North Shore
Personal Bests
LevelVault BarsBeamFloorAA
39.5258.925 9.2509.35036.850
49.5009.400 9.3009.50037.350
59.1758.675 9.3508.17535.375
69.3759.250 9.4009.42536.950
79.0258.700 9.2259.17535.925
Meet Scores
Date Meet Team Session Level Division Vault Bars Beam Floor AA
2021-04-09 Illinois Level 7 8 State Championships Flips Gymnastics North Shore 3 7 Sr A 8.950 14 7.800 31 9.225 13T 9.175 24T 35.150 28
2021-03-05 NGC Flip'r S.O.U.L. Invitational Flips Gymnastics North Shore 05 7 JR B 9.025 7 8.500 10 9.025 7 8.750 12 35.300 9
2021-02-26 Kinetic Classic 2021 Flips Gymnastics North Shore 13 7 Younger 8.950 18T 8.700 22T 9.200 10T 9.075 20 35.925 19
2021-02-19 BIG Classic 2021 Flips Gymnastics North Shore 7A 7 Junior C 9.000 5T 8.625 12 8.750 8 9.125 9 35.500 10T
2021-01-14 2021 Bravo Classic Flips Gymnastics North Shore 16 7 Sr 8.950 16T 8.500 13 8.975 11 8.850 18 35.275 12
2020-03-06 2020 Flip'r Invitational Flips Gymnastics North Shore 2 6 JR 8.950 5 8.600 11 9.200 5 9.425 8 36.175 7
2020-02-21 Gasparilla Classic Flips Gymnastics North Shore C4 6 L6 c4 g3 8.900 8 7.525 11 8.875 7 9.250 4 34.550 7
2020-01-17 2020 Bravo Classic Flips Gymnastics North Shore 11A 6 Jr 9.025 8T 9.250 5T 9.375 7 9.300 6T 36.950 3
2020-01-10 Leenda's Island Adventure Flips Gymnastics North Shore GG6 6 11 Year Ol 8.900 1T 8.650 8 8.850 4 9.275 5 35.675 5
2019-12-06 Ultimate Wish Classic Flips Gymnastics North Shore 1 6 JR B 9.375 4 8.950 5 9.400 2T 9.125 4 36.850 2
2019-11-08 Illinois Judges Cup Flips Gymnastics North Shore P4 5 All Ages 9.175 4 8.675 13T 9.350 3 8.175 41 35.375 13
2019-03-22 Illinois Gymnastics State Championships Flips Gymnastics North Shore 5 4 JR E 9.275 1 8.875 12T 9.250 7T 9.500 1 36.900 3
2019-03-08 Lucky Invite Flips Gymnastics North Shore A08 4 Sr 9.175 4T 9.400 10T 9.300 5T 9.025 7 36.900 4
2019-02-22 Gasparilla Classic Flips Gymnastics North Shore D4 4 Sr A 9.500 2 9.125 6 9.225 4 9.500 1 37.350 3
2019-01-11 Legacy Elite Classic Flips Gymnastics North Shore 6B 4 JrC 8.450 3 8.200 10 8.650 6 9.300 1 34.600 6
2018-11-30 Ultimate Wish Classic Flips Gymnastics North Shore 5 4 SR A 9.000 5T 8.800 8 8.800 5 8.675 7T 35.275 5
2018-05-03 Illinois USA Gymnastics Level 3 State Championships Flips Gymnastics North Shore 1 3 Jr F 9.525 2 8.900 18 9.250 6 9.175 13T 36.850 12
2018-03-09 Lucky Invitational Flips Gymnastics North Shore B03 3 Sr 9.450 1T 8.625 16 8.925 8 9.050 7 36.050 11
2018-02-17 Women's Midwest Open Flips Gymnastics North Shore 08 3 JR B 9.150 15T 8.925 8T 8.950 10T 9.250 7T 36.275 11
2018-01-19 2018 Bravo Classic Flips Gymnastics North Shore 8B 3 Sr 9.150 14 8.650 18 9.000 12 9.050 11 35.850 15
2018-01-04 Leenda's Island Adventure Flips Gymnastics North Shore G09 3 Sr B 9.000 11 7.675 10 9.200 6 9.350 3 35.225 9
Get your scores on
a t-shirt, pin, or hoodie